sensor_id;sensor_type;location;lat;lon;timestamp;temperature;humidity
25050;DHT22;13046;49.814;9.918;2023-09-19T04:20:29;17.50;99.90
25050;DHT22;13046;49.814;9.918;2023-09-19T04:22:55;16.90;99.90
25050;DHT22;13046;49.814;9.918;2023-09-19T04:25:21;16.70;99.90
25050;DHT22;13046;49.814;9.918;2023-09-19T04:28:06;16.60;99.90
25050;DHT22;13046;49.814;9.918;2023-09-19T04:30:34;16.60;99.90
25050;DHT22;13046;49.814;9.918;2023-09-19T04:33:00;16.60;99.90
25050;DHT22;13046;49.814;9.918;2023-09-19T04:35:42;16.60;99.90
25050;DHT22;13046;49.814;9.918;2023-09-19T04:38:09;16.60;99.90
25050;DHT22;13046;49.814;9.918;2023-09-19T04:40:35;16.60;99.90
25050;DHT22;13046;49.814;9.918;2023-09-19T04:43:01;16.60;99.90
25050;DHT22;13046;49.814;9.918;2023-09-19T04:45:27;16.60;99.90
25050;DHT22;13046;49.814;9.918;2023-09-19T04:47:53;16.50;99.90
25050;DHT22;13046;49.814;9.918;2023-09-19T04:50:20;16.40;99.90
25050;DHT22;13046;49.814;9.918;2023-09-19T04:52:49;16.40;99.90
25050;DHT22;13046;49.814;9.918;2023-09-19T04:55:17;16.30;99.90
25050;DHT22;13046;49.814;9.918;2023-09-19T04:57:44;16.30;99.90
25050;DHT22;13046;49.814;9.918;2023-09-19T05:00:12;16.20;99.90
25050;DHT22;13046;49.814;9.918;2023-09-19T05:02:56;16.20;99.90
25050;DHT22;13046;49.814;9.918;2023-09-19T05:05:22;16.10;99.90
25050;DHT22;13046;49.814;9.918;2023-09-19T05:07:49;16.00;99.90
25050;DHT22;13046;49.814;9.918;2023-09-19T05:10:16;15.90;99.90
25050;DHT22;13046;49.814;9.918;2023-09-19T05:12:44;15.90;99.90
25050;DHT22;13046;49.814;9.918;2023-09-19T05:15:13;15.80;99.90
25050;DHT22;13046;49.814;9.918;2023-09-19T05:18:23;15.80;99.90
25050;DHT22;13046;49.814;9.918;2023-09-19T05:24:12;15.80;99.90
25050;DHT22;13046;49.814;9.918;2023-09-19T05:26:40;15.80;99.90
25050;DHT22;13046;49.814;9.918;2023-09-19T05:29:05;15.80;99.90
25050;DHT22;13046;49.814;9.918;2023-09-19T05:31:33;15.80;99.90
25050;DHT22;13046;49.814;9.918;2023-09-19T05:34:02;15.90;99.90
25050;DHT22;13046;49.814;9.918;2023-09-19T05:40:15;15.80;99.90
25050;DHT22;13046;49.814;9.918;2023-09-19T05:42:41;15.80;99.90
25050;DHT22;13046;49.814;9.918;2023-09-19T05:45:09;15.90;99.90
25050;DHT22;13046;49.814;9.918;2023-09-19T05:47:40;15.90;99.90
25050;DHT22;13046;49.814;9.918;2023-09-19T05:50:07;15.90;99.90
25050;DHT22;13046;49.814;9.918;2023-09-19T05:52:35;16.00;99.90
25050;DHT22;13046;49.814;9.918;2023-09-19T05:55:00;16.00;99.90
25050;DHT22;13046;49.814;9.918;2023-09-19T05:57:26;16.10;99.90
25050;DHT22;13046;49.814;9.918;2023-09-19T05:59:53;16.10;99.90
25050;DHT22;13046;49.814;9.918;2023-09-19T06:02:18;16.20;99.90
25050;DHT22;13046;49.814;9.918;2023-09-19T06:04:45;16.30;99.90
25050;DHT22;13046;49.814;9.918;2023-09-19T06:07:11;16.40;99.90
25050;DHT22;13046;49.814;9.918;2023-09-19T06:09:37;16.50;99.90
25050;DHT22;13046;49.814;9.918;2023-09-19T06:12:04;16.50;99.90
25050;DHT22;13046;49.814;9.918;2023-09-19T06:14:30;16.60;99.90
25050;DHT22;13046;49.814;9.918;2023-09-19T06:16:56;16.60;99.90
25050;DHT22;13046;49.814;9.918;2023-09-19T06:19:22;16.60;99.90
25050;DHT22;13046;49.814;9.918;2023-09-19T06:21:52;16.70;99.90
25050;DHT22;13046;49.814;9.918;2023-09-19T06:24:19;16.70;99.90
25050;DHT22;13046;49.814;9.918;2023-09-19T06:26:46;16.80;99.90
25050;DHT22;13046;49.814;9.918;2023-09-19T06:29:13;16.90;99.90
25050;DHT22;13046;49.814;9.918;2023-09-19T06:31:39;16.90;99.90
25050;DHT22;13046;49.814;9.918;2023-09-19T06:34:05;17.00;99.90
25050;DHT22;13046;49.814;9.918;2023-09-19T06:36:32;17.00;99.90
25050;DHT22;13046;49.814;9.918;2023-09-19T06:38:58;17.00;99.90
25050;DHT22;13046;49.814;9.918;2023-09-19T06:41:24;16.90;99.90
25050;DHT22;13046;49.814;9.918;2023-09-19T06:43:50;16.90;99.90
25050;DHT22;13046;49.814;9.918;2023-09-19T06:46:19;16.90;99.90
25050;DHT22;13046;49.814;9.918;2023-09-19T06:53:41;17.00;99.90
25050;DHT22;13046;49.814;9.918;2023-09-19T06:56:07;17.10;99.90
25050;DHT22;13046;49.814;9.918;2023-09-19T06:58:33;17.10;99.90
25050;DHT22;13046;49.814;9.918;2023-09-19T07:00:58;17.10;99.90
25050;DHT22;13046;49.814;9.918;2023-09-19T07:03:24;17.10;99.90
25050;DHT22;13046;49.814;9.918;2023-09-19T07:05:52;17.20;99.90
25050;DHT22;13046;49.814;9.918;2023-09-19T07:08:18;17.30;99.90
25050;DHT22;13046;49.814;9.918;2023-09-19T07:10:45;17.30;99.90
25050;DHT22;13046;49.814;9.918;2023-09-19T19:14:34;17.50;99.90
25050;DHT22;13046;49.814;9.918;2023-09-19T19:17:00;16.20;99.90
25050;DHT22;13046;49.814;9.918;2023-09-19T19:19:26;16.00;99.90
25050;DHT22;13046;49.814;9.918;2023-09-19T19:21:53;16.00;99.90
25050;DHT22;13046;49.814;9.918;2023-09-19T19:24:19;15.90;99.90
25050;DHT22;13046;49.814;9.918;2023-09-19T19:26:46;15.80;99.90
25050;DHT22;13046;49.814;9.918;2023-09-19T19:29:12;15.80;99.90
25050;DHT22;13046;49.814;9.918;2023-09-19T19:31:39;15.80;99.90
25050;DHT22;13046;49.814;9.918;2023-09-19T19:36:32;15.80;99.90
25050;DHT22;13046;49.814;9.918;2023-09-19T19:38:59;15.60;99.90
25050;DHT22;13046;49.814;9.918;2023-09-19T19:41:25;15.60;99.90
25050;DHT22;13046;49.814;9.918;2023-09-19T19:46:17;15.50;99.90
25050;DHT22;13046;49.814;9.918;2023-09-19T19:48:43;15.40;99.90
25050;DHT22;13046;49.814;9.918;2023-09-19T19:56:06;15.30;99.90
25050;DHT22;13046;49.814;9.918;2023-09-19T19:58:33;15.20;99.90
25050;DHT22;13046;49.814;9.918;2023-09-19T20:00:59;15.20;99.90
25050;DHT22;13046;49.814;9.918;2023-09-19T20:03:27;15.20;99.90
25050;DHT22;13046;49.814;9.918;2023-09-19T20:05:53;15.30;99.90
25050;DHT22;13046;49.814;9.918;2023-09-19T20:08:19;15.20;99.90
25050;DHT22;13046;49.814;9.918;2023-09-19T20:10:45;15.20;99.90
25050;DHT22;13046;49.814;9.918;2023-09-19T20:13:11;15.20;99.90
25050;DHT22;13046;49.814;9.918;2023-09-19T20:15:38;15.20;99.90
25050;DHT22;13046;49.814;9.918;2023-09-19T20:18:05;15.20;99.90
25050;DHT22;13046;49.814;9.918;2023-09-19T20:20:37;15.10;99.90
25050;DHT22;13046;49.814;9.918;2023-09-19T20:23:03;15.00;99.90
25050;DHT22;13046;49.814;9.918;2023-09-19T20:25:29;14.90;99.90
25050;DHT22;13046;49.814;9.918;2023-09-19T20:27:56;14.90;99.90
25050;DHT22;13046;49.814;9.918;2023-09-19T20:30:22;14.90;99.90
25050;DHT22;13046;49.814;9.918;2023-09-19T20:32:49;14.80;99.90
25050;DHT22;13046;49.814;9.918;2023-09-19T20:35:16;14.90;99.90
25050;DHT22;13046;49.814;9.918;2023-09-19T20:37:43;14.90;99.90
25050;DHT22;13046;49.814;9.918;2023-09-19T20:40:15;14.80;99.90
25050;DHT22;13046;49.814;9.918;2023-09-19T20:42:46;14.80;99.90
25050;DHT22;13046;49.814;9.918;2023-09-19T20:45:14;14.80;99.90
25050;DHT22;13046;49.814;9.918;2023-09-19T20:47:40;14.80;99.90
25050;DHT22;13046;49.814;9.918;2023-09-19T20:50:06;14.70;99.90
25050;DHT22;13046;49.814;9.918;2023-09-19T20:52:32;14.70;99.90
25050;DHT22;13046;49.814;9.918;2023-09-19T20:54:59;14.70;99.90
25050;DHT22;13046;49.814;9.918;2023-09-19T20:57:25;14.60;99.90
25050;DHT22;13046;49.814;9.918;2023-09-19T20:59:50;14.60;99.90
25050;DHT22;13046;49.814;9.918;2023-09-19T21:02:16;14.60;99.90
25050;DHT22;13046;49.814;9.918;2023-09-19T21:04:42;14.50;99.90
25050;DHT22;13046;49.814;9.918;2023-09-19T21:07:08;14.50;99.90
25050;DHT22;13046;49.814;9.918;2023-09-19T21:09:33;14.50;99.90
25050;DHT22;13046;49.814;9.918;2023-09-19T21:12:03;14.40;99.90
25050;DHT22;13046;49.814;9.918;2023-09-19T21:14:32;14.40;99.90
25050;DHT22;13046;49.814;9.918;2023-09-19T21:16:58;14.40;99.90
25050;DHT22;13046;49.814;9.918;2023-09-19T21:19:25;14.30;99.90
25050;DHT22;13046;49.814;9.918;2023-09-19T21:21:51;14.40;99.90
25050;DHT22;13046;49.814;9.918;2023-09-19T21:24:19;14.40;99.90
25050;DHT22;13046;49.814;9.918;2023-09-19T21:26:46;14.30;99.90
25050;DHT22;13046;49.814;9.918;2023-09-19T21:29:12;14.20;99.90
25050;DHT22;13046;49.814;9.918;2023-09-19T21:31:38;14.20;99.90
25050;DHT22;13046;49.814;9.918;2023-09-19T21:34:05;14.20;99.90
25050;DHT22;13046;49.814;9.918;2023-09-19T21:36:31;14.20;99.90
25050;DHT22;13046;49.814;9.918;2023-09-19T21:38:59;14.20;99.90
25050;DHT22;13046;49.814;9.918;2023-09-19T21:41:26;14.20;99.90
25050;DHT22;13046;49.814;9.918;2023-09-19T21:43:53;14.10;99.90
25050;DHT22;13046;49.814;9.918;2023-09-19T21:46:20;14.10;99.90
25050;DHT22;13046;49.814;9.918;2023-09-19T21:48:47;14.10;99.90
25050;DHT22;13046;49.814;9.918;2023-09-19T21:51:15;14.00;99.90
25050;DHT22;13046;49.814;9.918;2023-09-19T21:53:41;14.00;99.90
25050;DHT22;13046;49.814;9.918;2023-09-19T21:56:07;13.90;99.90
25050;DHT22;13046;49.814;9.918;2023-09-19T21:58:34;13.90;99.90
25050;DHT22;13046;49.814;9.918;2023-09-19T22:01:03;13.90;99.90
25050;DHT22;13046;49.814;9.918;2023-09-19T22:03:39;13.90;99.90
25050;DHT22;13046;49.814;9.918;2023-09-19T22:06:09;13.80;99.90
25050;DHT22;13046;49.814;9.918;2023-09-19T22:08:36;13.90;99.90
25050;DHT22;13046;49.814;9.918;2023-09-19T22:11:03;13.90;99.90
25050;DHT22;13046;49.814;9.918;2023-09-19T22:13:33;13.80;99.90
25050;DHT22;13046;49.814;9.918;2023-09-19T22:16:00;13.80;99.90
25050;DHT22;13046;49.814;9.918;2023-09-19T22:18:26;13.80;99.90
25050;DHT22;13046;49.814;9.918;2023-09-19T22:20:53;13.70;99.90
25050;DHT22;13046;49.814;9.918;2023-09-19T22:23:25;13.70;99.90
25050;DHT22;13046;49.814;9.918;2023-09-19T22:26:04;13.70;99.90
25050;DHT22;13046;49.814;9.918;2023-09-19T22:31:20;13.60;99.90
25050;DHT22;13046;49.814;9.918;2023-09-19T22:33:52;13.60;99.90
25050;DHT22;13046;49.814;9.918;2023-09-19T22:36:21;13.50;99.90
25050;DHT22;13046;49.814;9.918;2023-09-19T22:38:57;13.60;99.90
25050;DHT22;13046;49.814;9.918;2023-09-19T22:41:43;13.60;99.90
25050;DHT22;13046;49.814;9.918;2023-09-19T22:44:09;13.50;99.90
25050;DHT22;13046;49.814;9.918;2023-09-19T22:46:35;13.50;99.90
25050;DHT22;13046;49.814;9.918;2023-09-19T22:49:02;13.40;99.90
25050;DHT22;13046;49.814;9.918;2023-09-19T22:51:32;13.40;99.90
25050;DHT22;13046;49.814;9.918;2023-09-19T22:54:42;13.40;99.90
25050;DHT22;13046;49.814;9.918;2023-09-19T22:57:08;13.40;99.90
25050;DHT22;13046;49.814;9.918;2023-09-19T22:59:36;13.40;99.90
25050;DHT22;13046;49.814;9.918;2023-09-19T23:02:03;13.40;99.90
25050;DHT22;13046;49.814;9.918;2023-09-19T23:04:30;13.40;99.90
25050;DHT22;13046;49.814;9.918;2023-09-19T23:06:56;13.40;99.90
25050;DHT22;13046;49.814;9.918;2023-09-19T23:09:27;13.50;99.90
25050;DHT22;13046;49.814;9.918;2023-09-19T23:11:54;13.50;99.90
25050;DHT22;13046;49.814;9.918;2023-09-19T23:14:21;13.50;99.90
25050;DHT22;13046;49.814;9.918;2023-09-19T23:16:53;13.50;99.90
25050;DHT22;13046;49.814;9.918;2023-09-19T23:19:21;13.50;99.90
25050;DHT22;13046;49.814;9.918;2023-09-19T23:21:55;13.60;99.90
25050;DHT22;13046;49.814;9.918;2023-09-19T23:24:21;13.60;99.90
25050;DHT22;13046;49.814;9.918;2023-09-19T23:26:47;13.70;99.90
25050;DHT22;13046;49.814;9.918;2023-09-19T23:29:17;13.70;99.90
25050;DHT22;13046;49.814;9.918;2023-09-19T23:31:46;13.70;99.90
25050;DHT22;13046;49.814;9.918;2023-09-19T23:34:12;13.80;99.90
25050;DHT22;13046;49.814;9.918;2023-09-19T23:36:41;13.80;99.90
25050;DHT22;13046;49.814;9.918;2023-09-19T23:39:08;13.80;99.90
25050;DHT22;13046;49.814;9.918;2023-09-19T23:41:35;13.90;99.90
25050;DHT22;13046;49.814;9.918;2023-09-19T23:44:05;13.90;99.90
25050;DHT22;13046;49.814;9.918;2023-09-19T23:46:34;13.90;99.90
25050;DHT22;13046;49.814;9.918;2023-09-19T23:49:00;13.90;99.90
25050;DHT22;13046;49.814;9.918;2023-09-19T23:51:27;13.90;99.90
25050;DHT22;13046;49.814;9.918;2023-09-19T23:53:55;13.90;99.90
25050;DHT22;13046;49.814;9.918;2023-09-19T23:56:21;13.90;99.90
25050;DHT22;13046;49.814;9.918;2023-09-19T23:58:47;13.90;99.90
